Time;durP1;ratioP1;P1;durP2;ratioP2;P2;SDS_P1;SDS_P2;PMS_P1;PMS_P2;Temp;Humidity;BMP_temperature;BMP_pressure;BME280_temperature;BME280_humidity;BME280_pressure;Samples;Min_cycle;Max_cycle;Signal;HPM_P1;HPM_P2
2022/09/07 00:01:34;;;;;;;8.40;7.50;;;;;;;20.77;94.02;100478.47;5027628;28;20037;-66
2022/09/07 00:04:00;;;;;;;8.45;7.65;;;;;;;20.65;93.84;100455.47;5009812;28;20569;-66
2022/09/07 00:06:25;;;;;;;8.00;7.30;;;;;;;20.73;93.84;100478.00;5027766;28;20033;-66
2022/09/07 00:08:51;;;;;;;8.98;7.63;;;;;;;20.73;93.83;100478.00;5026879;28;20064;-65
2022/09/07 00:11:18;;;;;;;8.02;7.20;;;;;;;20.65;93.61;100466.38;5027882;28;20112;-66
2022/09/07 00:13:46;;;;;;;8.18;7.20;;;;;;;20.69;93.66;100479.44;5027408;28;20036;-65
2022/09/07 00:16:29;;;;;;;9.13;7.43;;;;;;;20.71;92.81;100474.66;5027896;28;20546;-65
2022/09/07 00:18:56;;;;;;;8.20;7.40;;;;;;;20.70;93.01;100480.28;5026478;28;20036;-66
2022/09/07 00:21:23;;;;;;;7.70;6.85;;;;;;;20.64;93.21;100464.72;5026828;28;20089;-66
2022/09/07 00:23:49;;;;;;;8.75;7.82;;;;;;;20.67;93.15;100475.22;5007901;28;20025;-66
2022/09/07 00:26:20;;;;;;;10.82;7.95;;;;;;;20.65;93.46;100477.28;5027403;28;20095;-66
2022/09/07 00:28:47;;;;;;;9.90;7.47;;;;;;;20.65;93.45;100463.66;5027640;28;20043;-67
2022/09/07 00:31:17;;;;;;;11.32;7.78;;;;;;;20.63;93.14;100471.22;5007152;28;20046;-66
2022/09/07 00:33:43;;;;;;;9.00;7.55;;;;;;;20.56;93.34;100451.19;5009036;28;20119;-67
2022/09/07 00:36:09;;;;;;;9.30;7.35;;;;;;;20.61;93.36;100460.50;5025749;28;20504;-67
2022/09/07 00:38:36;;;;;;;8.23;7.32;;;;;;;20.63;93.20;100460.31;5027112;28;20030;-66
2022/09/07 00:41:02;;;;;;;8.05;7.35;;;;;;;20.61;93.54;100456.94;5008961;28;20068;-65
2022/09/07 00:43:39;;;;;;;8.02;7.22;;;;;;;20.57;93.15;100448.28;5027847;28;20053;-65
2022/09/07 00:46:09;;;;;;;7.60;6.85;;;;;;;20.61;93.42;100455.06;5026368;28;20154;-66
2022/09/07 00:48:41;;;;;;;8.55;7.57;;;;;;;20.62;93.78;100450.41;5027371;28;20092;-66
2022/09/07 00:51:12;;;;;;;7.63;6.93;;;;;;;20.62;93.66;100450.41;5025377;28;20032;-66
2022/09/07 00:53:53;;;;;;;8.60;7.80;;;;;;;20.61;93.74;100449.59;5026837;28;20033;-66
2022/09/07 00:56:22;;;;;;;8.77;7.88;;;;;;;20.62;93.99;100451.28;5025697;28;20108;-67
2022/09/07 00:58:48;;;;;;;8.55;7.65;;;;;;;20.61;93.54;100448.75;5026311;28;20481;-67
2022/09/07 01:01:16;;;;;;;8.32;7.63;;;;;;;20.62;93.54;100453.16;5026087;28;20063;-67
2022/09/07 01:03:47;;;;;;;7.60;6.95;;;;;;;20.62;93.12;100454.00;5026195;28;20117;-67
2022/09/07 01:06:20;;;;;;;9.38;7.90;;;;;;;20.61;93.27;100456.94;5026475;28;20037;-66
2022/09/07 01:08:50;;;;;;;8.65;7.90;;;;;;;20.56;92.88;100443.03;5025992;28;20057;-67
2022/09/07 01:11:20;;;;;;;11.52;7.60;;;;;;;20.59;92.98;100448.09;5008229;28;20045;-67
2022/09/07 01:13:47;;;;;;;9.60;7.85;;;;;;;20.56;93.27;100448.47;5026774;28;20586;-67
2022/09/07 01:16:16;;;;;;;11.43;7.82;;;;;;;20.55;93.06;100452.25;5024153;28;20366;-66
2022/09/07 01:19:15;;;;;;;8.38;7.63;;;;;;;20.39;93.35;100422.53;5025532;28;20068;-66
2022/09/07 01:22:02;;;;;;;8.55;7.75;;;;;;;20.46;93.78;100437.06;4980798;28;20108;-65
2022/09/07 01:24:30;;;;;;;8.68;7.85;;;;;;;20.49;93.64;100439.41;5025826;28;20393;-66
2022/09/07 01:27:39;;;;;;;9.02;7.90;;;;;;;20.45;93.80;100438.09;5024848;28;20507;-66
2022/09/07 01:30:08;;;;;;;9.25;8.25;;;;;;;20.43;93.88;100441.03;5025859;28;20038;-66
2022/09/07 01:32:58;;;;;;;8.50;7.70;;;;;;;20.43;93.67;100438.31;5025974;28;20534;-66
2022/09/07 01:35:44;;;;;;;8.93;8.02;;;;;;;20.41;93.54;100440.38;5021675;28;20060;-66
2022/09/07 01:38:20;;;;;;;8.38;7.57;;;;;;;20.38;93.81;100432.63;5024918;28;20108;-67
2022/09/07 01:41:14;;;;;;;11.73;8.73;;;;;;;20.31;93.83;100428.13;5025422;28;21276;-67
2022/09/07 01:44:01;;;;;;;9.10;8.20;;;;;;;20.36;94.00;100436.56;5007504;28;20393;-67
2022/09/07 01:46:30;;;;;;;9.25;8.35;;;;;;;20.26;93.95;100428.72;5025690;28;20036;-66
2022/09/07 01:49:07;;;;;;;9.30;8.40;;;;;;;20.24;94.69;100428.06;5025995;28;20095;-67
2022/09/07 01:51:38;;;;;;;9.43;8.55;;;;;;;20.12;95.27;100414.09;5025959;28;20138;-66
2022/09/07 01:54:13;;;;;;;8.30;7.50;;;;;;;20.25;95.34;100424.31;5024407;28;20030;-67
2022/09/07 01:56:44;;;;;;;13.25;8.68;;;;;;;20.22;95.27;100426.56;5026033;28;20028;-67
2022/09/07 01:59:22;;;;;;;9.18;8.27;;;;;;;20.16;95.24;100420.84;5025385;28;20374;-65
2022/09/07 02:01:55;;;;;;;9.32;8.43;;;;;;;20.18;95.47;100424.22;5024928;28;20033;-66
2022/09/07 02:04:25;;;;;;;13.15;8.63;;;;;;;20.18;95.97;100428.81;5025095;28;20036;-67
2022/09/07 02:06:58;;;;;;;9.13;8.32;;;;;;;20.15;95.64;100421.88;5023892;28;20040;-68
2022/09/07 02:09:33;;;;;;;10.00;9.00;;;;;;;20.16;95.86;100431.75;5025754;28;20036;-67
2022/09/07 02:12:02;;;;;;;10.90;8.98;;;;;;;20.14;96.00;100432.97;5007499;28;20033;-67
2022/09/07 02:14:38;;;;;;;10.30;9.20;;;;;;;20.08;96.02;100418.22;5024267;28;20049;-65
2022/09/07 02:17:14;;;;;;;9.45;8.55;;;;;;;20.09;95.99;100419.06;5007771;28;20037;-65
2022/09/07 02:19:52;;;;;;;10.30;9.30;;;;;;;20.06;96.52;100423.00;5006793;28;20049;-66
2022/09/07 02:22:26;;;;;;;9.57;8.65;;;;;;;20.05;96.78;100417.75;5024078;28;20029;-66
2022/09/07 02:24:56;;;;;;;10.98;9.90;;;;;;;20.01;96.79;100411.88;5006565;28;20052;-66
2022/09/07 02:27:47;;;;;;;10.88;9.50;;;;;;;20.01;97.32;100411.00;5025618;28;20029;-67
2022/09/07 02:30:13;;;;;;;10.25;9.27;;;;;;;19.97;97.25;100399.69;5024629;28;20033;-65
2022/09/07 02:32:38;;;;;;;12.38;10.07;;;;;;;19.94;97.40;100393.78;5025552;28;20504;-66
2022/09/07 02:35:05;;;;;;;10.95;9.85;;;;;;;19.98;97.17;100393.19;5024304;28;20033;-66
2022/09/07 02:37:32;;;;;;;12.02;10.70;;;;;;;19.95;97.47;100392.72;5023811;28;20037;-66
2022/09/07 02:39:59;;;;;;;11.55;10.15;;;;;;;19.98;97.73;100403.22;5025521;28;20025;-67
2022/09/07 02:42:28;;;;;;;13.10;11.80;;;;;;;19.97;97.68;100404.28;5007358;28;20080;-66
2022/09/07 02:44:53;;;;;;;12.95;11.45;;;;;;;19.93;97.85;100397.53;5022499;28;20069;-66
2022/09/07 02:47:34;;;;;;;12.50;11.23;;;;;;;19.92;98.01;100398.56;5023758;28;20061;-66
2022/09/07 02:50:09;;;;;;;12.65;11.35;;;;;;;19.94;98.09;100412.81;5025612;28;20037;-66
2022/09/07 02:53:02;;;;;;;13.00;11.60;;;;;;;19.91;98.54;100411.34;5025488;28;20088;-67
2022/09/07 02:55:55;;;;;;;14.45;11.98;;;;;;;19.86;98.53;100400.16;5022508;28;20891;-66
2022/09/07 02:58:33;;;;;;;12.98;10.52;;;;;;;19.83;98.86;100397.81;5025265;28;20112;-66
2022/09/07 03:01:32;;;;;;;11.82;10.63;;;;;;;19.74;99.40;100396.25;5023871;28;20488;-66
2022/09/07 03:04:03;;;;;;;11.20;10.10;;;;;;;19.73;99.78;100388.28;5023916;28;20488;-66
2022/09/07 03:06:44;;;;;;;15.13;11.05;;;;;;;19.70;99.89;100389.50;5025434;28;20029;-65
2022/09/07 03:09:15;;;;;;;13.68;10.50;;;;;;;19.67;100.00;100381.72;5024977;28;20052;-67
2022/09/07 03:11:41;;;;;;;12.02;10.75;;;;;;;19.68;99.70;100391.59;5007050;28;20029;-66
2022/09/07 03:14:15;;;;;;;12.98;11.65;;;;;;;19.55;100.00;100366.09;5024178;28;20397;-65
2022/09/07 03:16:41;;;;;;;12.50;11.40;;;;;;;19.59;100.00;100390.00;5005989;28;20456;-66
2022/09/07 03:19:07;;;;;;;12.77;11.25;;;;;;;19.58;100.00;100392.94;5024453;28;20037;-67
2022/09/07 03:21:32;;;;;;;14.10;11.18;;;;;;;19.54;100.00;100380.75;5025059;28;20040;-65
2022/09/07 03:23:58;;;;;;;13.77;11.45;;;;;;;19.49;100.00;100378.59;5024060;28;20040;-66
2022/09/07 03:26:24;;;;;;;12.40;10.93;;;;;;;19.46;100.00;100383.56;5023803;28;20025;-65
2022/09/07 03:28:52;;;;;;;11.73;10.55;;;;;;;19.33;100.00;100367.06;5024611;28;20071;-66
2022/09/07 03:31:19;;;;;;;12.15;11.02;;;;;;;19.39;100.00;100379.91;5024608;28;20021;-65
2022/09/07 03:33:45;;;;;;;12.05;10.80;;;;;;;19.30;100.00;100368.28;5023003;28;21632;-65
2022/09/07 03:36:10;;;;;;;12.60;11.40;;;;;;;19.36;100.00;100389.31;5023577;28;20089;-65
2022/09/07 03:38:36;;;;;;;12.25;10.80;;;;;;;19.37;100.00;100390.13;5024228;28;20106;-66
2022/09/07 03:41:04;;;;;;;13.13;11.75;;;;;;;19.34;100.00;100385.06;5024276;28;20021;-66
2022/09/07 03:43:30;;;;;;;13.75;11.15;;;;;;;19.28;100.00;100386.66;5022580;28;20430;-66
2022/09/07 03:46:00;;;;;;;12.45;11.25;;;;;;;19.22;100.00;100392.00;5022458;28;20091;-66
2022/09/07 03:48:29;;;;;;;17.48;12.10;;;;;;;19.16;100.00;100392.75;5023921;28;20030;-66
2022/09/07 03:51:03;;;;;;;16.45;11.82;;;;;;;19.05;100.00;100388.63;5023924;28;20037;-66
2022/09/07 03:53:33;;;;;;;13.77;12.37;;;;;;;19.00;100.00;100399.22;5023405;28;20041;-66
2022/09/07 03:56:10;;;;;;;14.20;11.75;;;;;;;18.90;100.00;100387.78;5006047;28;20065;-67
2022/09/07 03:58:36;;;;;;;13.05;11.65;;;;;;;18.91;100.00;100402.19;5023575;28;20037;-66
2022/09/07 04:01:07;;;;;;;12.88;11.48;;;;;;;18.83;100.00;100402.28;5023021;28;20037;-66
2022/09/07 04:03:33;;;;;;;12.55;11.35;;;;;;;18.75;100.00;100400.50;5021969;28;20040;-65
2022/09/07 04:06:00;;;;;;;14.50;12.07;;;;;;;18.74;100.00;100414.28;5024338;28;20389;-66
2022/09/07 04:08:27;;;;;;;13.30;11.93;;;;;;;18.70;100.00;100411.06;5023845;28;20417;-65
2022/09/07 04:10:58;;;;;;;13.32;12.02;;;;;;;18.71;100.00;100420.06;5023440;28;20027;-65
2022/09/07 04:13:25;;;;;;;14.10;12.60;;;;;;;18.68;100.00;100409.56;5023194;28;20042;-66
2022/09/07 04:15:51;;;;;;;13.55;12.15;;;;;;;18.61;100.00;100398.59;5021048;28;20044;-66
2022/09/07 04:18:16;;;;;;;14.25;12.13;;;;;;;18.61;100.00;100406.75;5022224;28;20405;-66
2022/09/07 04:20:42;;;;;;;13.25;12.07;;;;;;;18.55;100.00;100415.63;5005763;28;20053;-65
2022/09/07 04:23:08;;;;;;;15.18;13.68;;;;;;;18.55;100.00;100431.09;5022347;28;20385;-66
2022/09/07 04:25:33;;;;;;;14.55;13.15;;;;;;;18.47;100.00;100418.41;5023122;28;20029;-66
2022/09/07 04:27:59;;;;;;;13.48;12.15;;;;;;;18.48;100.00;100433.69;5023550;28;20108;-67
2022/09/07 04:30:25;;;;;;;14.10;12.63;;;;;;;18.45;100.00;100435.91;5024332;28;20069;-67
2022/09/07 04:32:50;;;;;;;13.88;12.57;;;;;;;18.43;100.00;100429.81;5022938;28;20611;-67
2022/09/07 04:35:16;;;;;;;14.48;12.98;;;;;;;18.41;100.00;100446.28;5024167;28;20045;-65
2022/09/07 04:37:42;;;;;;;13.95;12.52;;;;;;;18.38;100.00;100438.50;5005886;28;20473;-64
2022/09/07 04:40:09;;;;;;;14.57;13.07;;;;;;;18.36;100.00;100443.28;5024139;28;20116;-64
2022/09/07 04:42:34;;;;;;;15.27;13.80;;;;;;;18.37;100.00;100442.25;5022770;28;20035;-65
2022/09/07 04:45:00;;;;;;;15.18;13.45;;;;;;;18.36;100.00;100443.28;5007073;28;20021;-66
2022/09/07 04:47:25;;;;;;;15.68;14.15;;;;;;;18.35;100.00;100438.88;5027419;28;20095;-66
2022/09/07 04:49:51;;;;;;;17.48;14.30;;;;;;;18.43;100.00;100444.25;5027752;28;20068;-66
2022/09/07 04:52:18;;;;;;;14.88;13.48;;;;;;;18.48;100.00;100441.00;5009687;28;20072;-65
2022/09/07 04:54:47;;;;;;;15.57;13.88;;;;;;;18.49;100.00;100448.09;5026297;28;20385;-65
2022/09/07 04:57:12;;;;;;;15.25;13.75;;;;;;;18.52;100.00;100451.31;5024924;28;20025;-65
2022/09/07 04:59:37;;;;;;;16.33;14.73;;;;;;;18.55;100.00;100452.81;5026883;28;20083;-65
2022/09/07 05:02:03;;;;;;;19.67;14.73;;;;;;;18.58;100.00;100458.75;5027460;28;20080;-64
2022/09/07 05:04:29;;;;;;;15.23;13.65;;;;;;;18.63;100.00;100461.75;5007020;28;20031;-66
2022/09/07 05:06:54;;;;;;;15.98;14.13;;;;;;;18.65;100.00;100454.25;5026832;28;20072;-64
2022/09/07 05:09:20;;;;;;;14.38;12.98;;;;;;;18.67;100.00;100449.47;5026284;28;20037;-65
2022/09/07 05:11:45;;;;;;;15.68;14.07;;;;;;;18.69;100.00;100455.56;5025427;28;20041;-65
2022/09/07 05:14:11;;;;;;;16.13;14.45;;;;;;;18.77;100.00;100455.50;5026389;28;20585;-65
2022/09/07 05:16:36;;;;;;;18.77;13.90;;;;;;;18.79;100.00;100448.00;5024500;28;20029;-66
2022/09/07 05:19:04;;;;;;;15.95;13.15;;;;;;;18.89;100.00;100451.31;5026678;28;20110;-65
2022/09/07 05:21:32;;;;;;;15.10;13.50;;;;;;;19.03;100.00;100460.53;5026862;28;20033;-66
2022/09/07 05:23:58;;;;;;;15.00;13.45;;;;;;;19.12;100.00;100460.25;5025970;28;20033;-65
2022/09/07 05:26:26;;;;;;;13.98;12.75;;;;;;;19.23;100.00;100461.66;5025519;28;20083;-66
2022/09/07 05:28:52;;;;;;;14.77;13.27;;;;;;;19.34;100.00;100462.06;5025294;28;20409;-65
2022/09/07 05:31:20;;;;;;;13.98;12.00;;;;;;;19.46;100.00;100460.59;5026221;28;20041;-66
2022/09/07 05:33:50;;;;;;;15.50;12.88;;;;;;;19.51;100.00;100452.69;5024516;28;20080;-66
2022/09/07 05:36:16;;;;;;;15.55;14.13;;;;;;;19.71;100.00;100470.16;5024941;28;20037;-66
2022/09/07 05:38:42;;;;;;;15.10;13.13;;;;;;;19.82;100.00;100461.47;5026304;28;20054;-66
2022/09/07 05:41:16;;;;;;;19.13;12.57;;;;;;;19.96;100.00;100482.38;5025880;28;20037;-65
2022/09/07 05:43:42;;;;;;;13.38;11.93;;;;;;;20.10;99.76;100488.84;5025747;28;20021;-66
2022/09/07 05:46:08;;;;;;;15.30;12.30;;;;;;;20.17;97.55;100473.44;5024565;28;20041;-67
2022/09/07 05:48:34;;;;;;;13.98;11.55;;;;;;;20.27;97.51;100470.41;5026046;28;20048;-67
2022/09/07 05:51:00;;;;;;;17.27;12.32;;;;;;;20.40;96.95;100475.97;5008411;28;20061;-66
2022/09/07 05:53:25;;;;;;;15.00;12.30;;;;;;;20.41;96.59;100467.63;5025321;28;20053;-66
2022/09/07 05:55:51;;;;;;;15.13;12.18;;;;;;;20.58;96.24;100479.97;5023798;28;20041;-66
2022/09/07 05:58:17;;;;;;;13.45;10.65;;;;;;;20.71;95.55;100474.66;5025963;28;20545;-66
2022/09/07 06:00:44;;;;;;;13.15;11.75;;;;;;;20.81;93.62;100485.19;5025136;28;20444;-67
2022/09/07 06:03:09;;;;;;;12.13;11.00;;;;;;;20.91;93.44;100482.97;5022354;28;20076;-66
2022/09/07 06:05:35;;;;;;;12.63;10.88;;;;;;;20.98;92.84;100473.00;5021125;28;20029;-67
2022/09/07 06:08:01;;;;;;;16.90;13.02;;;;;;;21.14;91.49;100480.88;5024947;28;20108;-67
2022/09/07 06:10:26;;;;;;;13.35;10.60;;;;;;;21.27;91.53;100472.78;5024672;28;20047;-67
2022/09/07 06:12:52;;;;;;;13.45;12.10;;;;;;;21.37;89.75;100478.72;5008955;28;20044;-66
2022/09/07 06:15:18;;;;;;;13.35;11.13;;;;;;;21.41;88.78;100455.47;5024282;28;20060;-66
2022/09/07 06:17:43;;;;;;;12.73;11.50;;;;;;;21.71;87.55;100478.75;5026468;28;20033;-66
2022/09/07 06:20:09;;;;;;;12.75;10.77;;;;;;;21.86;87.33;100483.03;5022504;28;20061;-66
2022/09/07 06:22:35;;;;;;;14.40;10.30;;;;;;;21.98;85.76;100475.97;5022548;28;20400;-66
2022/09/07 06:25:02;;;;;;;12.77;10.93;;;;;;;22.16;85.18;100487.16;5024531;28;20029;-66
2022/09/07 06:27:27;;;;;;;12.48;10.27;;;;;;;22.27;84.13;100466.59;5026378;28;20035;-66
2022/09/07 06:29:53;;;;;;;14.55;10.98;;;;;;;22.50;81.29;100472.56;5006718;28;20034;-66
2022/09/07 06:32:18;;;;;;;12.38;10.18;;;;;;;22.67;80.96;100476.59;5026602;28;20102;-67
2022/09/07 06:34:44;;;;;;;11.20;10.07;;;;;;;22.84;78.02;100471.53;5022570;28;20385;-66
2022/09/07 06:37:09;;;;;;;14.45;11.52;;;;;;;23.12;73.85;100473.00;5026128;28;20041;-65
2022/09/07 06:39:35;;;;;;;12.13;10.98;;;;;;;23.02;75.51;100458.91;5026062;28;20033;-67
2022/09/07 06:42:02;;;;;;;14.30;11.40;;;;;;;23.13;75.89;100471.97;5011933;28;20132;-66
2022/09/07 06:44:28;;;;;;;13.75;12.25;;;;;;;23.29;72.34;100466.09;5023607;28;20034;-66
2022/09/07 06:46:53;;;;;;;15.77;11.90;;;;;;;23.38;73.10;100464.78;5026328;28;20103;-66
2022/09/07 06:49:19;;;;;;;15.63;12.10;;;;;;;23.52;72.28;100466.47;5026308;28;20033;-66
2022/09/07 06:51:44;;;;;;;16.52;12.63;;;;;;;23.66;70.88;100464.50;5022373;28;20128;-66
2022/09/07 06:54:10;;;;;;;12.80;11.15;;;;;;;23.81;70.20;100465.09;5025999;28;20080;-66
2022/09/07 06:56:35;;;;;;;16.20;12.60;;;;;;;24.08;66.57;100467.53;5025725;28;20544;-65
2022/09/07 06:59:01;;;;;;;12.48;11.27;;;;;;;24.24;66.73;100466.19;5026349;28;20029;-65
2022/09/07 07:01:28;;;;;;;14.63;11.27;;;;;;;24.31;67.37;100473.31;5005079;28;20045;-66
2022/09/07 07:03:54;;;;;;;13.05;11.65;;;;;;;24.41;66.99;100476.41;5025741;28;20025;-65
2022/09/07 07:06:20;;;;;;;14.90;10.77;;;;;;;24.57;64.68;100461.34;5025774;28;20029;-65
2022/09/07 07:08:46;;;;;;;17.48;12.38;;;;;;;24.83;63.10;100472.16;5025426;28;20409;-66
2022/09/07 07:11:14;;;;;;;14.18;12.18;;;;;;;24.98;63.00;100482.81;5024295;28;20025;-66
2022/09/07 07:13:43;;;;;;;12.32;11.05;;;;;;;25.00;63.58;100478.78;5007476;28;20425;-65
2022/09/07 07:16:13;;;;;;;11.85;10.63;;;;;;;25.10;63.46;100475.50;5007923;28;20033;-67
2022/09/07 07:18:40;;;;;;;13.27;11.13;;;;;;;25.25;62.22;100478.75;5025666;28;20091;-66
2022/09/07 07:21:10;;;;;;;12.90;11.57;;;;;;;25.41;61.41;100467.22;5022479;28;20033;-67
2022/09/07 07:23:36;;;;;;;11.70;10.55;;;;;;;25.58;61.36;100471.91;5025391;28;20424;-67
2022/09/07 07:26:16;;;;;;;14.65;11.25;;;;;;;25.82;61.01;100475.63;5026085;28;20056;-65
2022/09/07 07:28:43;;;;;;;15.32;11.57;;;;;;;26.03;60.15;100477.94;5024327;28;20025;-65
2022/09/07 07:31:09;;;;;;;12.70;10.57;;;;;;;26.19;58.66;100475.41;5008125;28;20029;-65
2022/09/07 07:33:36;;;;;;;13.07;10.90;;;;;;;26.45;57.62;100479.69;5025268;28;20072;-66
2022/09/07 07:36:11;;;;;;;18.23;11.35;;;;;;;26.56;58.20;100480.81;5007272;28;20056;-65
2022/09/07 07:38:37;;;;;;;13.27;10.57;;;;;;;26.72;58.55;100482.94;5006186;28;20437;-67
2022/09/07 07:41:02;;;;;;;12.45;11.15;;;;;;;26.88;57.61;100488.59;5005609;28;20092;-67
2022/09/07 07:43:28;;;;;;;16.70;10.80;;;;;;;27.09;57.06;100490.78;5025805;28;22690;-67
2022/09/07 07:45:54;;;;;;;12.57;10.52;;;;;;;27.31;55.47;100475.38;5003893;28;20046;-67
2022/09/07 07:48:20;;;;;;;14.93;11.30;;;;;;;27.54;53.31;100469.03;5024216;28;20033;-67
2022/09/07 07:50:57;;;;;;;14.40;12.02;;;;;;;27.71;53.16;100478.22;5025636;28;20079;-66
2022/09/07 07:53:22;;;;;;;16.58;10.75;;;;;;;27.65;54.12;100466.25;4997030;28;20532;-67
2022/09/07 07:55:48;;;;;;;11.85;10.65;;;;;;;27.82;53.42;100467.19;5006932;28;20033;-67
2022/09/07 07:58:13;;;;;;;13.93;12.52;;;;;;;28.10;51.22;100470.03;5021305;28;20367;-67
2022/09/07 08:00:39;;;;;;;11.15;10.00;;;;;;;28.65;49.21;100472.19;5025014;28;20048;-66
2022/09/07 08:03:05;;;;;;;13.63;10.95;;;;;;;29.25;47.90;100462.22;5025091;28;20041;-66
2022/09/07 08:05:34;;;;;;;12.80;10.80;;;;;;;29.81;46.54;100478.56;5025604;28;20033;-67
2022/09/07 08:08:00;;;;;;;12.88;10.32;;;;;;;30.41;45.07;100460.78;5023621;28;20477;-67
2022/09/07 08:10:28;;;;;;;12.98;10.93;;;;;;;31.08;43.39;100469.50;5025317;28;20036;-65
2022/09/07 08:12:54;;;;;;;10.70;8.70;;;;;;;32.04;41.93;100462.66;5025111;28;20493;-67
2022/09/07 08:15:19;;;;;;;12.00;9.82;;;;;;;33.18;39.72;100463.22;5025224;28;20121;-67
2022/09/07 08:17:48;;;;;;;12.07;8.45;;;;;;;34.63;35.72;100460.81;5024928;28;20029;-67
2022/09/07 08:20:15;;;;;;;8.43;7.43;;;;;;;35.63;33.97;100450.78;5026935;28;20393;-67
2022/09/07 08:22:40;;;;;;;11.68;8.57;;;;;;;35.87;33.47;100460.03;5010656;28;20031;-67
2022/09/07 08:25:06;;;;;;;8.55;7.63;;;;;;;36.45;32.83;100461.53;5028821;28;20392;-66
2022/09/07 08:27:33;;;;;;;8.68;7.75;;;;;;;36.81;32.46;100458.22;5027371;28;20434;-66
2022/09/07 08:29:59;;;;;;;8.77;7.18;;;;;;;37.39;31.12;100459.50;5027858;28;20018;-66
2022/09/07 08:32:26;;;;;;;9.68;7.80;;;;;;;37.87;30.87;100449.59;5028824;28;20600;-66
2022/09/07 08:34:51;;;;;;;10.45;8.43;;;;;;;38.39;30.60;100451.84;5010954;28;20413;-67
2022/09/07 08:37:17;;;;;;;11.15;8.18;;;;;;;38.73;29.74;100457.81;5025945;28;20041;-67
2022/09/07 08:39:42;;;;;;;8.30;7.05;;;;;;;39.18;28.55;100451.09;5009560;28;20052;-66
2022/09/07 08:42:23;;;;;;;8.57;7.10;;;;;;;39.15;29.09;100451.75;5010544;28;20503;-66
2022/09/07 08:45:01;;;;;;;7.20;6.60;;;;;;;39.47;28.19;100445.00;5028672;28;20084;-68
2022/09/07 08:47:40;;;;;;;9.63;6.72;;;;;;;39.84;27.77;100447.38;5024287;28;20025;-66
2022/09/07 08:50:09;;;;;;;9.55;7.20;;;;;;;40.22;26.84;100440.03;5027161;28;20567;-66
2022/09/07 08:53:03;;;;;;;11.38;6.82;;;;;;;40.15;27.16;100434.91;5028387;28;20045;-67
2022/09/07 08:55:32;;;;;;;7.93;7.07;;;;;;;40.14;27.09;100433.22;4996943;28;20443;-66
2022/09/07 08:58:11;;;;;;;9.98;6.75;;;;;;;40.90;25.52;100433.69;5024300;28;20030;-67
2022/09/07 09:00:38;;;;;;;9.88;7.18;;;;;;;40.64;26.17;100418.78;5026659;28;20029;-67
2022/09/07 09:03:24;;;;;;;9.57;7.13;;;;;;;40.47;26.39;100426.03;5027908;28;20029;-67
2022/09/07 09:06:18;;;;;;;10.93;7.10;;;;;;;40.42;26.42;100416.91;5024057;28;20045;-67
2022/09/07 09:09:03;;;;;;;8.07;6.88;;;;;;;41.04;26.09;100414.63;5026838;28;20742;-67
2022/09/07 09:11:39;;;;;;;7.25;6.63;;;;;;;41.25;25.50;100413.59;5027843;28;20079;-66
2022/09/07 09:14:35;;;;;;;10.77;6.60;;;;;;;41.77;25.13;100422.69;5026403;28;20033;-65
2022/09/07 09:17:37;;;;;;;8.82;6.35;;;;;;;42.23;24.73;100419.84;5028248;28;20036;-66
2022/09/07 09:20:23;;;;;;;7.20;6.53;;;;;;;42.34;24.35;100423.94;5024389;28;20047;-66
2022/09/07 09:22:53;;;;;;;7.70;7.00;;;;;;;42.39;23.86;100412.44;5027918;28;20056;-66
2022/09/07 09:25:21;;;;;;;8.30;6.72;;;;;;;42.30;24.47;100411.69;5025420;28;20099;-67
2022/09/07 09:27:48;;;;;;;7.00;6.30;;;;;;;41.87;24.39;100413.84;5027347;28;20032;-67
2022/09/07 09:30:17;;;;;;;7.75;7.15;;;;;;;41.97;24.19;100413.53;5027147;28;20532;-67
2022/09/07 09:32:45;;;;;;;7.30;6.65;;;;;;;40.97;25.39;100408.66;5027260;28;20792;-66
2022/09/07 09:35:33;;;;;;;7.80;7.10;;;;;;;40.14;26.75;100407.91;5025146;28;20041;-67
2022/09/07 09:37:58;;;;;;;7.28;6.65;;;;;;;39.34;27.26;100407.44;5019337;28;20025;-67
2022/09/07 09:40:28;;;;;;;7.90;7.13;;;;;;;38.76;28.07;100417.91;5019551;28;20142;-67
2022/09/07 09:43:01;;;;;;;7.72;7.03;;;;;;;37.93;29.37;100409.97;5022767;28;20053;-67
2022/09/07 09:45:32;;;;;;;8.15;7.38;;;;;;;37.32;29.97;100411.44;5008800;28;20524;-66
2022/09/07 09:48:00;;;;;;;7.43;6.82;;;;;;;36.91;30.14;100396.53;5009674;28;20037;-66
2022/09/07 09:50:32;;;;;;;8.15;7.30;;;;;;;36.35;30.93;100402.97;5027737;28;20037;-66
2022/09/07 09:52:59;;;;;;;8.15;7.50;;;;;;;35.78;31.88;100400.34;5005600;28;20060;-66
2022/09/07 09:55:36;;;;;;;8.43;7.80;;;;;;;35.25;32.49;100392.28;5025456;28;20044;-65
2022/09/07 09:58:30;;;;;;;8.65;7.50;;;;;;;34.80;33.31;100389.88;5024788;28;20083;-67
2022/09/07 10:01:05;;;;;;;8.15;7.32;;;;;;;34.47;33.80;100389.59;5020392;28;20037;-66
2022/09/07 10:03:32;;;;;;;10.10;8.02;;;;;;;34.13;34.25;100390.63;5023439;28;20036;-68
2022/09/07 10:06:00;;;;;;;8.48;7.63;;;;;;;33.93;34.03;100394.34;5026872;28;20037;-66
2022/09/07 10:08:28;;;;;;;8.68;7.82;;;;;;;33.92;33.34;100383.50;5026558;28;20060;-67
2022/09/07 10:10:57;;;;;;;8.18;7.45;;;;;;;33.82;33.28;100387.13;5026609;28;20021;-66
2022/09/07 10:13:27;;;;;;;8.80;7.93;;;;;;;33.57;34.05;100394.75;5022436;28;20075;-67
2022/09/07 10:15:57;;;;;;;8.90;8.10;;;;;;;33.42;33.87;100392.00;5026855;28;20402;-69
2022/09/07 10:18:36;;;;;;;9.27;8.27;;;;;;;33.28;34.11;100391.75;5020876;28;20040;-67
2022/09/07 10:21:12;;;;;;;8.48;7.78;;;;;;;33.15;34.77;100391.47;5024806;28;20428;-66
2022/09/07 10:23:39;;;;;;;10.48;8.60;;;;;;;33.00;34.45;100384.00;5023261;28;20745;-67
2022/09/07 10:26:26;;;;;;;10.13;7.85;;;;;;;32.83;35.05;100386.22;5024980;28;20059;-67
2022/09/07 10:29:25;;;;;;;7.72;7.13;;;;;;;32.90;34.35;100388.72;5014798;28;20456;-67
2022/09/07 10:32:25;;;;;;;8.73;7.97;;;;;;;32.67;34.96;100386.47;5026754;28;20488;-67
2022/09/07 10:35:11;;;;;;;7.75;7.05;;;;;;;32.62;34.76;100389.25;5007584;28;20124;-67
2022/09/07 10:37:55;;;;;;;8.95;8.02;;;;;;;32.55;34.75;100397.84;5024826;28;20481;-67
2022/09/07 10:40:39;;;;;;;9.27;8.48;;;;;;;32.30;35.06;100368.09;5023827;28;20025;-66
2022/09/07 10:43:14;;;;;;;9.77;8.82;;;;;;;32.22;35.34;100378.91;5000221;28;20498;-66
2022/09/07 10:45:53;;;;;;;9.20;8.30;;;;;;;32.11;36.26;100385.56;5024711;28;20030;-66
2022/09/07 10:48:37;;;;;;;9.68;8.77;;;;;;;32.09;35.70;100374.72;5024658;28;20035;-67
2022/09/07 10:51:07;;;;;;;9.40;8.60;;;;;;;31.91;35.68;100366.88;5025916;28;20086;-67
2022/09/07 10:53:33;;;;;;;9.15;8.25;;;;;;;31.98;35.15;100375.78;5024908;28;20762;-66
2022/09/07 10:56:10;;;;;;;9.00;8.20;;;;;;;31.95;34.71;100373.53;5025636;28;20174;-68
2022/09/07 10:58:52;;;;;;;8.23;7.53;;;;;;;31.78;34.63;100374.84;5025999;28;20452;-67
2022/09/07 11:01:33;;;;;;;8.77;8.02;;;;;;;31.77;34.58;100371.25;5006437;28;20124;-66
2022/09/07 11:04:17;;;;;;;9.27;8.32;;;;;;;31.69;35.36;100371.75;5022190;28;20033;-67
2022/09/07 11:06:50;;;;;;;;;;;;;;;31.64;35.37;100368.97;5008384;28;20036;-66
2022/09/07 11:10:01;;;;;;;8.17;7.57;;;;;;;31.52;35.98;100360.03;5006077;28;19913;-66
2022/09/07 11:12:35;;;;;;;9.55;8.60;;;;;;;31.51;35.90;100363.94;4944752;29;20518;-66
2022/09/07 11:15:15;;;;;;;8.63;7.93;;;;;;;31.47;36.10;100365.53;5001263;28;20041;-66
2022/09/07 11:18:02;;;;;;;9.40;8.60;;;;;;;31.52;35.97;100367.50;5025382;28;20021;-66
2022/09/07 11:20:34;;;;;;;9.90;8.65;;;;;;;31.49;35.92;100368.91;5007448;28;20047;-67
2022/09/07 11:23:13;;;;;;;9.30;8.57;;;;;;;31.41;36.24;100360.25;5021712;28;20025;-67
2022/09/07 11:25:47;;;;;;;9.30;8.40;;;;;;;31.40;36.11;100358.59;5025613;28;20029;-66
2022/09/07 11:28:21;;;;;;;9.43;8.55;;;;;;;31.38;36.34;100361.63;5025332;28;20025;-66
2022/09/07 11:30:53;;;;;;;10.05;8.10;;;;;;;31.39;36.22;100356.91;5025538;28;20811;-67
2022/09/07 11:33:28;;;;;;;9.55;8.63;;;;;;;31.38;35.64;100356.09;5023424;28;20462;-67